createdAt,value
2018-03-11T00:01:34.376Z,85.90
2018-03-11T00:04:02.716Z,86.00
2018-03-11T00:06:30.245Z,86.00
2018-03-11T00:08:57.821Z,86.00
2018-03-11T00:11:25.354Z,85.90
2018-03-11T00:13:52.924Z,86.00
2018-03-11T00:16:20.497Z,86.00
2018-03-11T00:18:48.076Z,85.90
2018-03-11T00:21:15.636Z,86.00
2018-03-11T00:23:43.167Z,86.30
2018-03-11T00:26:10.741Z,86.10
2018-03-11T00:28:38.313Z,86.20
2018-03-11T00:31:05.889Z,86.30
2018-03-11T00:33:33.424Z,86.40
2018-03-11T00:36:00.992Z,86.90
2018-03-11T00:38:28.523Z,86.20
2018-03-11T00:40:56.103Z,86.30
2018-03-11T00:43:23.637Z,86.10
2018-03-11T00:45:51.191Z,86.30
2018-03-11T00:48:18.780Z,86.30
2018-03-11T00:50:46.312Z,86.20
2018-03-11T00:53:13.884Z,86.30
2018-03-11T00:55:41.419Z,86.30
2018-03-11T00:58:09.760Z,86.30
2018-03-11T01:00:37.326Z,86.30
2018-03-11T01:03:04.889Z,86.20
2018-03-11T01:05:32.468Z,86.30
2018-03-11T01:08:00.780Z,86.30
2018-03-11T01:10:28.351Z,86.30
2018-03-11T01:12:55.924Z,86.20
2018-03-11T01:15:23.492Z,86.40
2018-03-11T01:17:51.030Z,86.30
2018-03-11T01:20:18.604Z,86.40
2018-03-11T01:22:46.176Z,86.40
2018-03-11T01:25:13.710Z,86.40
2018-03-11T01:27:41.248Z,86.40
2018-03-11T01:30:08.821Z,86.40
2018-03-11T01:32:36.365Z,86.40
2018-03-11T01:35:04.021Z,86.50
2018-03-11T01:37:31.491Z,86.60
2018-03-11T01:39:59.050Z,86.50
2018-03-11T01:42:26.577Z,86.60
2018-03-11T01:44:54.147Z,86.50
2018-03-11T01:47:22.450Z,86.60
2018-03-11T01:49:50.025Z,86.50
2018-03-11T01:52:17.576Z,86.50
2018-03-11T01:54:45.147Z,86.60
2018-03-11T01:57:12.723Z,86.60
2018-03-11T01:59:40.261Z,86.70
2018-03-11T02:02:07.842Z,86.70
2018-03-11T02:04:35.429Z,86.70
2018-03-11T02:07:02.976Z,86.70
2018-03-11T02:09:30.512Z,86.70
2018-03-11T02:11:58.090Z,86.70
2018-03-11T02:14:25.624Z,86.80
2018-03-11T02:16:53.165Z,86.80
2018-03-11T02:19:20.736Z,86.80
2018-03-11T02:21:48.266Z,86.90
2018-03-11T02:24:16.602Z,87.00
2018-03-11T02:26:44.133Z,87.00
2018-03-11T02:29:11.688Z,87.10
2018-03-11T02:31:39.276Z,87.10
2018-03-11T02:34:06.813Z,87.00
2018-03-11T02:36:34.358Z,87.10
2018-03-11T02:39:01.919Z,87.90
2018-03-11T02:41:29.491Z,87.20
2018-03-11T02:43:57.023Z,87.10
2018-03-11T02:46:25.371Z,87.10
2018-03-11T02:48:52.915Z,87.10
2018-03-11T02:51:20.483Z,87.20
2018-03-11T02:53:48.053Z,87.20
2018-03-11T02:56:15.613Z,87.20
2018-03-11T02:58:43.147Z,87.20
2018-03-11T03:01:10.719Z,87.30
2018-03-11T03:03:38.258Z,87.30
2018-03-11T03:06:05.836Z,87.20
2018-03-11T03:08:33.413Z,87.20
2018-03-11T03:11:00.986Z,87.30
2018-03-11T03:13:28.519Z,87.20
2018-03-11T03:15:56.086Z,87.40
2018-03-11T03:18:23.626Z,87.20
2018-03-11T03:20:51.196Z,87.20
2018-03-11T03:23:18.724Z,87.30
2018-03-11T03:25:46.293Z,87.30
2018-03-11T03:28:13.823Z,87.30
2018-03-11T03:30:42.157Z,87.30
2018-03-11T03:33:09.724Z,87.10
2018-03-11T03:35:37.261Z,87.30
2018-03-11T03:38:04.798Z,87.20
2018-03-11T03:40:32.366Z,87.10
2018-03-11T03:42:59.910Z,87.10
2018-03-11T03:45:27.489Z,87.20
2018-03-11T03:47:55.020Z,87.10
2018-03-11T03:50:22.557Z,87.10
2018-03-11T03:52:50.127Z,87.20
2018-03-11T03:55:18.425Z,87.20
2018-03-11T03:57:46.020Z,87.10
2018-03-11T04:00:13.560Z,87.10
2018-03-11T04:02:41.191Z,87.10
2018-03-11T04:05:09.533Z,87.10
2018-03-11T04:07:37.061Z,87.10
2018-03-11T04:10:04.628Z,87.20
2018-03-11T04:12:32.164Z,87.20
2018-03-11T04:14:59.732Z,87.10
2018-03-11T04:17:27.304Z,87.00
2018-03-11T04:19:54.877Z,87.00
2018-03-11T04:22:22.413Z,87.00
2018-03-11T04:24:49.992Z,87.00
2018-03-11T04:27:17.524Z,87.00
2018-03-11T04:29:45.097Z,87.00
2018-03-11T04:32:12.657Z,86.90
2018-03-11T04:34:40.188Z,87.00
2018-03-11T04:37:08.527Z,86.90
2018-03-11T04:39:36.060Z,86.90
2018-03-11T04:42:03.722Z,86.90
2018-03-11T04:44:31.298Z,86.90
2018-03-11T04:46:58.877Z,86.90
2018-03-11T04:49:26.419Z,86.80
2018-03-11T04:51:54.001Z,86.80
2018-03-11T04:54:21.535Z,86.80
2018-03-11T04:56:49.132Z,86.80
2018-03-11T04:59:17.424Z,86.80
2018-03-11T05:01:45.725Z,86.70
2018-03-11T05:04:13.321Z,86.70
2018-03-11T05:06:40.856Z,86.60
2018-03-11T05:09:08.440Z,86.70
2018-03-11T05:11:35.984Z,86.70
2018-03-11T05:14:03.576Z,86.70
2018-03-11T05:16:31.115Z,86.60
2018-03-11T05:18:58.700Z,86.60
2018-03-11T05:21:26.232Z,86.60
2018-03-11T05:23:53.820Z,86.60
2018-03-11T05:26:21.356Z,86.60
2018-03-11T05:28:48.939Z,86.90
2018-03-11T05:31:16.474Z,86.60
2018-03-11T05:33:44.052Z,87.30
2018-03-11T05:36:11.575Z,86.50
2018-03-11T05:38:39.164Z,86.60
2018-03-11T05:41:06.737Z,86.60
2018-03-11T05:43:34.319Z,86.60
2018-03-11T05:46:02.624Z,86.50
2018-03-11T05:48:30.204Z,86.50
2018-03-11T05:50:57.744Z,86.40
2018-03-11T05:53:25.388Z,86.50
2018-03-11T05:55:52.893Z,86.50
2018-03-11T05:58:20.479Z,86.50
2018-03-11T06:00:48.315Z,86.50
2018-03-11T06:03:15.916Z,86.40
2018-03-11T06:05:44.225Z,86.30
2018-03-11T06:08:11.807Z,86.30
2018-03-11T06:10:39.353Z,86.30
2018-03-11T06:13:06.932Z,86.40
2018-03-11T06:15:34.460Z,86.40
2018-03-11T06:18:02.045Z,86.40
2018-03-11T06:20:29.587Z,86.40
2018-03-11T06:22:57.173Z,86.50
2018-03-11T06:25:24.715Z,86.50
2018-03-11T06:27:52.296Z,86.40
2018-03-11T06:30:19.835Z,86.40
2018-03-11T06:32:47.434Z,86.40
2018-03-11T06:35:14.966Z,86.30
2018-03-11T06:37:42.498Z,86.30
2018-03-11T06:40:10.084Z,86.30
2018-03-11T06:42:37.626Z,86.30
2018-03-11T06:45:05.207Z,86.30
2018-03-11T06:47:32.735Z,86.30
2018-03-11T06:50:00.325Z,86.20
2018-03-11T06:52:27.882Z,86.00
2018-03-11T06:54:55.532Z,85.80
2018-03-11T06:57:23.081Z,85.80
2018-03-11T06:59:50.673Z,85.70
2018-03-11T07:02:18.265Z,85.80
2018-03-11T07:04:46.616Z,85.40
2018-03-11T07:07:14.160Z,85.40
2018-03-11T07:09:41.736Z,85.50
2018-03-11T07:12:09.490Z,85.30
2018-03-11T07:14:37.138Z,85.40
2018-03-11T07:17:04.666Z,85.20
2018-03-11T07:19:33.214Z,85.20
2018-03-11T07:22:00.760Z,85.10
2018-03-11T07:24:28.359Z,84.90
2018-03-11T07:26:56.654Z,84.90
2018-03-11T07:29:24.241Z,84.90
2018-03-11T07:31:51.778Z,85.00
2018-03-11T07:34:19.371Z,84.70
2018-03-11T07:36:46.904Z,85.00
2018-03-11T07:39:15.209Z,83.90
2018-03-11T07:41:42.791Z,83.80
2018-03-11T07:44:10.323Z,83.60
2018-03-11T07:46:37.954Z,83.50
2018-03-11T07:49:05.492Z,84.00
2018-03-11T07:54:01.950Z,83.70
2018-03-11T07:56:30.348Z,83.50
2018-03-11T07:58:57.922Z,83.50
2018-03-11T08:01:25.543Z,83.50
2018-03-11T08:03:53.125Z,83.50
2018-03-11T08:06:20.723Z,83.60
2018-03-11T08:08:48.268Z,83.80
2018-03-11T08:11:15.851Z,83.90
2018-03-11T08:13:43.384Z,83.20
2018-03-11T08:16:10.967Z,84.30
2018-03-11T08:18:38.556Z,83.30
2018-03-11T08:21:06.901Z,83.60
2018-03-11T08:23:34.442Z,83.50
2018-03-11T08:26:02.785Z,83.80
2018-03-11T08:28:31.089Z,83.70
2018-03-11T08:30:58.702Z,83.70
2018-03-11T08:33:26.306Z,83.40
2018-03-11T08:35:53.863Z,83.30
2018-03-11T08:38:21.464Z,83.60
2018-03-11T08:40:49.054Z,83.40
2018-03-11T08:43:17.435Z,83.40
2018-03-11T08:45:46.417Z,83.00
2018-03-11T08:48:14.010Z,83.00
2018-03-11T08:50:41.601Z,83.20
2018-03-11T08:53:09.261Z,83.40
2018-03-11T08:55:36.842Z,83.00
2018-03-11T08:58:04.399Z,83.20
2018-03-11T09:00:31.936Z,82.50
2018-03-11T09:02:59.730Z,83.40
2018-03-11T09:05:27.327Z,82.90
2018-03-11T09:07:54.872Z,83.40
2018-03-11T09:10:23.229Z,83.20
2018-03-11T09:12:50.776Z,83.20
2018-03-11T09:15:18.356Z,83.80
2018-03-11T09:17:45.883Z,82.60
2018-03-11T09:20:13.421Z,82.70
2018-03-11T09:22:40.995Z,83.30
2018-03-11T09:25:08.542Z,83.10
2018-03-11T09:27:36.119Z,83.40
2018-03-11T09:30:03.650Z,82.90
2018-03-11T09:32:31.219Z,82.90
2018-03-11T09:34:58.796Z,82.80
2018-03-11T09:37:26.332Z,83.40
2018-03-11T09:39:53.930Z,82.60
2018-03-11T09:42:21.511Z,83.00
2018-03-11T09:44:49.850Z,83.20
2018-03-11T09:47:17.380Z,83.20
2018-03-11T09:49:45.719Z,82.70
2018-03-11T09:52:13.250Z,82.70
2018-03-11T09:54:40.836Z,83.50
2018-03-11T09:57:08.369Z,83.30
2018-03-11T09:59:35.906Z,82.90
2018-03-11T10:02:03.693Z,83.30
2018-03-11T10:04:31.285Z,82.90
2018-03-11T10:06:58.817Z,83.40
2018-03-11T10:09:26.357Z,82.40
2018-03-11T10:11:53.916Z,82.40
2018-03-11T10:14:21.452Z,81.70
2018-03-11T10:16:49.786Z,82.80
2018-03-11T10:19:17.320Z,82.80
2018-03-11T10:21:44.886Z,82.60
2018-03-11T10:24:12.420Z,81.70
2018-03-11T10:26:40.757Z,81.20
2018-03-11T10:29:08.289Z,81.10
2018-03-11T10:31:35.880Z,81.30
2018-03-11T10:34:04.180Z,81.30
2018-03-11T10:36:32.483Z,81.80
2018-03-11T10:39:00.064Z,81.80
2018-03-11T10:41:27.604Z,81.90
2018-03-11T10:43:55.181Z,82.20
2018-03-11T10:46:22.746Z,82.90
2018-03-11T10:48:50.317Z,82.90
2018-03-11T10:51:17.865Z,82.90
2018-03-11T10:53:45.451Z,82.90
2018-03-11T10:56:12.984Z,82.60
2018-03-11T10:58:40.562Z,82.90
2018-03-11T11:01:14.101Z,83.00
2018-03-11T11:03:48.168Z,83.20
2018-03-11T11:06:15.741Z,83.10
2018-03-11T11:08:43.272Z,82.40
2018-03-11T11:11:10.855Z,82.40
2018-03-11T11:13:38.399Z,82.10
2018-03-11T11:16:05.981Z,82.30
2018-03-11T11:18:33.516Z,82.50
2018-03-11T11:21:01.091Z,82.40
2018-03-11T11:23:28.670Z,82.50
2018-03-11T11:25:56.210Z,82.20
2018-03-11T11:28:23.793Z,82.00
2018-03-11T11:30:51.329Z,82.20
2018-03-11T11:33:18.869Z,81.90
2018-03-11T11:35:46.452Z,79.40
2018-03-11T11:38:14.093Z,77.90
2018-03-11T11:40:41.663Z,77.70
2018-03-11T11:43:09.219Z,78.90
2018-03-11T11:45:36.983Z,79.90
2018-03-11T11:48:04.569Z,79.20
2018-03-11T11:50:32.147Z,79.50
2018-03-11T11:52:59.664Z,79.80
2018-03-11T11:55:27.245Z,80.00
2018-03-11T11:57:54.784Z,80.10
2018-03-11T12:00:22.354Z,80.20
2018-03-11T12:02:49.880Z,81.30
2018-03-11T12:05:17.457Z,80.30
2018-03-11T12:07:45.032Z,81.30
2018-03-11T12:10:12.603Z,81.30
2018-03-11T12:12:40.140Z,80.20
2018-03-11T12:15:07.714Z,80.00
2018-03-11T12:17:35.257Z,79.80
2018-03-11T12:20:02.837Z,79.80
2018-03-11T12:22:30.375Z,79.00
2018-03-11T12:24:57.951Z,77.30
2018-03-11T12:27:25.562Z,76.10
2018-03-11T12:29:53.904Z,74.40
2018-03-11T12:32:21.439Z,74.30
2018-03-11T12:34:49.095Z,72.70
2018-03-11T12:37:16.634Z,71.60
2018-03-11T12:39:44.199Z,71.40
2018-03-11T12:42:11.789Z,72.00
2018-03-11T12:44:39.370Z,73.40
2018-03-11T12:47:06.961Z,74.50
2018-03-11T12:49:35.304Z,74.00
2018-03-11T12:52:02.880Z,73.90
2018-03-11T12:54:30.429Z,73.00
2018-03-11T12:56:58.037Z,72.20
2018-03-11T12:59:25.611Z,71.40
2018-03-11T13:01:53.259Z,70.80
2018-03-11T13:04:20.833Z,70.80
2018-03-11T13:06:48.499Z,72.30
2018-03-11T13:09:16.106Z,74.20
2018-03-11T13:11:44.412Z,76.70
2018-03-11T13:14:11.973Z,75.90
2018-03-11T13:16:39.513Z,76.40
2018-03-11T13:19:07.908Z,76.70
2018-03-11T13:21:36.216Z,77.00
2018-03-11T13:24:03.791Z,77.00
2018-03-11T13:26:31.333Z,77.10
2018-03-11T13:28:58.867Z,77.10
2018-03-11T13:31:26.556Z,77.00
2018-03-11T13:34:20.103Z,76.90
2018-03-11T13:36:47.918Z,77.00
2018-03-11T13:39:27.382Z,76.80
2018-03-11T13:41:55.692Z,76.80
2018-03-11T13:44:23.280Z,76.80
2018-03-11T13:47:11.697Z,76.70
2018-03-11T13:49:39.280Z,76.60
2018-03-11T13:52:29.490Z,76.60
2018-03-11T13:54:57.083Z,76.70
2018-03-11T14:00:32.512Z,76.40
2018-03-11T14:03:00.057Z,76.50
2018-03-11T14:05:27.665Z,76.50
2018-03-11T14:07:55.198Z,76.40
2018-03-11T14:10:22.792Z,76.50
2018-03-11T14:12:51.101Z,76.50
2018-03-11T14:15:18.694Z,76.40
2018-03-11T14:17:46.233Z,76.30
2018-03-11T14:20:14.209Z,76.40
2018-03-11T14:22:41.760Z,76.30
2018-03-11T14:25:09.367Z,76.30
2018-03-11T14:27:36.916Z,76.40
2018-03-11T14:30:04.499Z,76.40
2018-03-11T14:32:32.819Z,76.70
2018-03-11T14:35:00.613Z,76.60
2018-03-11T14:37:28.152Z,76.80
2018-03-11T14:39:55.737Z,76.90
2018-03-11T14:42:23.275Z,77.00
2018-03-11T14:44:50.859Z,76.90
2018-03-11T14:47:18.402Z,77.10
2018-03-11T14:49:46.005Z,77.50
2018-03-11T14:52:14.309Z,77.60
2018-03-11T14:54:41.899Z,77.50
2018-03-11T14:57:09.436Z,77.70
2018-03-11T14:59:37.015Z,77.60
2018-03-11T15:02:04.616Z,77.40
2018-03-11T15:04:32.204Z,77.30
2018-03-11T15:06:59.739Z,77.30
2018-03-11T15:09:28.088Z,77.30
2018-03-11T15:11:55.623Z,77.30
2018-03-11T15:14:23.231Z,77.30
2018-03-11T15:16:50.767Z,77.30
2018-03-11T15:19:18.360Z,77.20
2018-03-11T15:21:46.677Z,77.40
2018-03-11T15:24:14.269Z,77.40
2018-03-11T15:26:41.816Z,77.60
2018-03-11T15:29:09.401Z,77.50
2018-03-11T15:31:36.942Z,77.60
2018-03-11T15:34:04.524Z,77.60
2018-03-11T15:36:32.829Z,77.90
2018-03-11T15:39:01.180Z,78.00
2018-03-11T15:41:28.735Z,78.00
2018-03-11T15:43:57.083Z,78.30
2018-03-11T15:46:24.616Z,78.30
2018-03-11T15:48:52.204Z,78.30
2018-03-11T15:51:19.813Z,78.50
2018-03-11T15:53:48.165Z,78.50
2018-03-11T15:56:15.696Z,78.50
2018-03-11T15:58:43.228Z,78.60
2018-03-11T16:01:11.568Z,78.90
2018-03-11T16:03:39.149Z,78.80
2018-03-11T16:06:07.459Z,78.90
2018-03-11T16:08:34.996Z,78.90
2018-03-11T16:11:03.335Z,79.10
2018-03-11T16:13:30.971Z,79.00
2018-03-11T16:15:58.597Z,79.10
2018-03-11T16:18:26.165Z,79.10
2018-03-11T16:20:53.750Z,79.10
2018-03-11T16:23:21.318Z,79.20
2018-03-11T16:25:48.929Z,79.20
2018-03-11T16:28:17.230Z,79.20
2018-03-11T16:30:44.796Z,79.20
2018-03-11T16:33:12.381Z,79.30
2018-03-11T16:35:39.927Z,79.10
2018-03-11T16:38:07.504Z,79.40
2018-03-11T16:40:35.040Z,79.40
2018-03-11T16:43:02.636Z,79.60
2018-03-11T16:45:30.185Z,79.60
2018-03-11T16:47:57.738Z,79.70
2018-03-11T16:50:25.313Z,79.70
2018-03-11T16:52:52.887Z,79.90
2018-03-11T16:55:20.437Z,79.90
2018-03-11T16:57:48.019Z,80.00
2018-03-11T17:00:15.600Z,80.40
2018-03-11T17:02:43.907Z,80.40
2018-03-11T17:05:11.516Z,80.40
2018-03-11T17:07:39.047Z,80.40
2018-03-11T17:10:06.630Z,80.50
2018-03-11T17:12:34.221Z,80.40
2018-03-11T17:15:01.727Z,80.50
2018-03-11T17:17:29.313Z,80.40
2018-03-11T17:19:58.363Z,80.30
2018-03-11T17:22:25.931Z,80.20
2018-03-11T17:24:53.476Z,80.10
2018-03-11T17:27:21.050Z,80.20
2018-03-11T17:29:48.623Z,80.30
2018-03-11T17:32:17.926Z,80.10
2018-03-11T17:34:45.474Z,80.10
2018-03-11T17:37:13.069Z,80.10
2018-03-11T17:39:40.615Z,80.00
2018-03-11T17:42:08.963Z,80.10
2018-03-11T17:44:36.541Z,80.10
2018-03-11T17:47:04.196Z,80.10
2018-03-11T17:49:31.771Z,80.10
2018-03-11T17:51:59.357Z,80.20
2018-03-11T17:54:26.933Z,80.20
2018-03-11T17:56:55.251Z,80.20
2018-03-11T17:59:22.825Z,80.20
2018-03-11T18:01:50.369Z,80.20
2018-03-11T18:04:17.940Z,80.20
2018-03-11T18:06:45.479Z,80.20
2018-03-11T18:09:13.061Z,80.20
2018-03-11T18:11:40.598Z,80.30
2018-03-11T18:14:08.948Z,80.40
2018-03-11T18:16:37.305Z,80.40
2018-03-11T18:19:04.893Z,80.40
2018-03-11T18:21:32.429Z,80.50
2018-03-11T18:24:00.736Z,80.70
2018-03-11T18:26:28.311Z,80.70
2018-03-11T18:28:55.877Z,80.70
2018-03-11T18:31:23.458Z,80.80
2018-03-11T18:33:51.033Z,80.70
2018-03-11T18:36:18.624Z,80.80
2018-03-11T18:38:46.941Z,80.60
2018-03-11T18:41:14.523Z,80.60
2018-03-11T18:43:42.066Z,80.70
2018-03-11T18:46:09.643Z,80.70
2018-03-11T18:48:37.226Z,80.70
2018-03-11T18:51:04.764Z,80.80
2018-03-11T18:53:32.347Z,80.80
2018-03-11T18:56:00.656Z,81.30
2018-03-11T18:58:28.223Z,80.70
2018-03-11T19:00:55.761Z,80.90
2018-03-11T19:03:24.104Z,80.90
2018-03-11T19:05:52.476Z,80.90
2018-03-11T19:08:20.036Z,81.00
2018-03-11T19:10:47.580Z,81.00
2018-03-11T19:13:15.529Z,81.00
2018-03-11T19:15:43.074Z,81.00
2018-03-11T19:18:11.418Z,81.00
2018-03-11T19:20:38.958Z,81.00
2018-03-11T19:23:06.551Z,80.80
2018-03-11T19:25:34.896Z,80.90
2018-03-11T19:28:02.436Z,80.90
2018-03-11T19:30:30.012Z,80.80
2018-03-11T19:32:57.666Z,80.80
2018-03-11T19:35:25.243Z,80.70
2018-03-11T19:37:52.776Z,80.80
2018-03-11T19:40:20.348Z,80.80
2018-03-11T19:42:47.882Z,80.80
2018-03-11T19:45:15.459Z,80.80
2018-03-11T19:47:43.042Z,80.90
2018-03-11T19:50:10.599Z,80.70
2018-03-11T19:52:38.176Z,80.70
2018-03-11T19:55:05.756Z,80.80
2018-03-11T19:57:34.097Z,80.80
2018-03-11T20:00:01.641Z,80.70
2018-03-11T20:02:29.224Z,80.80
2018-03-11T20:04:56.770Z,80.70
2018-03-11T20:07:24.345Z,80.70
2018-03-11T20:09:51.894Z,80.60
2018-03-11T20:12:19.479Z,80.50
2018-03-11T20:14:47.063Z,80.70
2018-03-11T20:17:15.417Z,80.50
2018-03-11T20:19:43.039Z,80.50
2018-03-11T20:22:10.616Z,80.50
2018-03-11T20:24:38.163Z,80.50
2018-03-11T20:27:05.938Z,80.60
2018-03-11T20:29:33.476Z,80.60
2018-03-11T20:32:01.023Z,80.70
2018-03-11T20:34:28.609Z,80.80
2018-03-11T20:36:56.149Z,80.60
2018-03-11T20:39:23.728Z,80.70
2018-03-11T20:41:51.281Z,80.50
2018-03-11T20:44:18.867Z,80.80
2018-03-11T20:46:46.708Z,81.30
2018-03-11T20:49:14.286Z,81.00
2018-03-11T20:51:42.021Z,80.80
2018-03-11T20:54:09.602Z,81.10
2018-03-11T20:56:37.147Z,81.50
2018-03-11T20:59:04.721Z,81.60
2018-03-11T21:01:32.260Z,81.60
2018-03-11T21:03:59.978Z,81.60
2018-03-11T21:06:27.561Z,81.60
2018-03-11T21:08:55.903Z,82.90
2018-03-11T21:11:23.440Z,82.90
2018-03-11T21:13:51.009Z,83.00
2018-03-11T21:16:18.544Z,83.30
2018-03-11T21:18:46.119Z,83.30
2018-03-11T21:21:13.696Z,83.60
2018-03-11T21:23:41.229Z,83.60
2018-03-11T21:26:08.808Z,83.60
2018-03-11T21:28:36.356Z,83.50
2018-03-11T21:31:03.939Z,83.70
2018-03-11T21:33:31.511Z,83.80
2018-03-11T21:35:59.048Z,83.80
2018-03-11T21:38:26.620Z,84.00
2018-03-11T21:40:54.160Z,83.90
2018-03-11T21:43:21.732Z,84.10
2018-03-11T21:45:49.270Z,83.80
2018-03-11T21:48:16.848Z,84.40
2018-03-11T21:50:44.384Z,84.40
2018-03-11T21:53:11.968Z,84.40
2018-03-11T21:55:39.577Z,84.60
2018-03-11T21:58:07.980Z,84.90
2018-03-11T22:00:35.612Z,84.90
2018-03-11T22:03:03.918Z,84.90
2018-03-11T22:05:31.491Z,84.90
2018-03-11T22:07:59.028Z,84.80
2018-03-11T22:10:26.603Z,84.90
2018-03-11T22:12:54.145Z,85.10
2018-03-11T22:15:21.713Z,85.30
2018-03-11T22:17:49.256Z,85.20
2018-03-11T22:20:17.641Z,85.50
2018-03-11T22:22:45.936Z,85.80
2018-03-11T22:25:13.473Z,85.70
2018-03-11T22:27:41.820Z,85.90
2018-03-11T22:30:09.361Z,86.60
2018-03-11T22:32:36.929Z,85.70
2018-03-11T22:35:04.462Z,85.90
2018-03-11T22:37:32.033Z,86.10
2018-03-11T22:39:59.566Z,86.20
2018-03-11T22:42:27.146Z,86.30
2018-03-11T22:44:54.680Z,86.60
2018-03-11T22:47:22.252Z,86.40
2018-03-11T22:49:49.793Z,86.70
2018-03-11T22:52:18.133Z,86.40
2018-03-11T22:54:45.664Z,86.40
2018-03-11T22:57:13.237Z,86.50
2018-03-11T22:59:40.834Z,86.70
2018-03-11T23:02:09.138Z,87.00
2018-03-11T23:04:36.716Z,87.00
2018-03-11T23:07:04.260Z,86.90
2018-03-11T23:09:31.820Z,87.00
2018-03-11T23:11:59.404Z,87.00
2018-03-11T23:14:26.940Z,87.00
2018-03-11T23:16:54.502Z,87.00
2018-03-11T23:19:22.074Z,87.10
2018-03-11T23:21:49.655Z,87.20
2018-03-11T23:24:17.191Z,87.40
2018-03-11T23:26:44.757Z,87.40
2018-03-11T23:29:12.332Z,87.40
2018-03-11T23:31:39.909Z,87.50
2018-03-11T23:34:07.452Z,87.30
2018-03-11T23:36:35.029Z,87.30
2018-03-11T23:39:02.609Z,87.70
2018-03-11T23:41:30.916Z,87.60
2018-03-11T23:43:58.490Z,87.50
2018-03-11T23:46:26.023Z,87.50
2018-03-11T23:48:54.360Z,87.70
2018-03-11T23:51:21.904Z,87.60
2018-03-11T23:53:49.472Z,87.70
2018-03-11T23:56:17.052Z,87.80
2018-03-11T23:58:44.674Z,87.70
